Hood Army Air Field
KHLR : now visible

Aeroporto :











RITROVATECI SU...

 
LOGIN :

Iscrizione | Disclaimer

   EN    FR    IT 

 









Sommario :    VFR   VFR Marginale   IFR   IFR Intensivo   IFR Molto Intensivo
Visibilità : 
Base nubi : 
>= 8 km
>= 3000ft
5 / 8 km
1000 / 3000 ft
1500m / 5 km
500 / 1000 ft
800 / 1500m
200 / 500 ft
< 800m
< 200 ft
Simboli :   Temporali  Nebbia  Neve Forte  Precipitazioni Forti  Vento > 20 kt






- Altitudine del aeroporto : 924 ft


KHLR - Hood Army Air Field

ULTIMO METAR :
  • 201137Z AUTO 01014KT 10SM -RA OVC007 06/05 A3026 RMK AO2 RAE17RAB37 SLP249

METARs OBSOLETI :
  • 201117Z AUTO 36012G20KT 10SM OVC007 06/05 A3026 RMK AO2 RAE17 PRESRR SLP249
  • 201103Z AUTO 01015KT 9SM -RA OVC005 06/05 A3023 RMK AO2 SLP239
  • 200958Z AUTO 35010KT 10SM -RA BKN003 OVC015 06/05 A3022 RMK AO2 SLP235 P0011 T00560052
  • 200858Z AUTO 35007KT 8SM RA BKN003 OVC010 06/05 A3022 RMK AO2 SLP235 P0007 60027 T00570053 58005

TAF N/A



MetMap, La meteo Aeronautica in un colpo d'occhio ! - Copyright ORBIFLY Dicembre 2007 - Disclaimer

ORBIFLY MET'MAP TEAM :

Programmazione e sviluppo : Alexandra Zaïnal
Concezione : Baudouin d'Aumeries
Aiuto per la programmazione : Marc-Olivier Méhu
Supporto tecnico e logistico : Manuel Goepfert
Aiuto per la traduzione : Arnaldo La Scala

Contatto : metmap@orbifly.com




FONTI E CREDITI :

   NOAA       Earth
Advisory